TAM3993 SABE-SBRJ
Flight info
| Callsign | TAM3993 |
|---|---|
| Flight time | 3h 13m |
| Altitude | 37000 |
| Route | DORVO8 DORVO UN857 AKNUB |
| Aircraft | A319/M-SDE3FGHIRWY/LB1 |
Departure
| Time | 2026-05-04 02:02 |
|---|---|
| Airport | Aeroparque Jorge Newbery (SABE) |
Arrival
| Time | 2026-05-04 05:16 |
|---|---|
| Airport | Santos Dumont Airport (SBRJ) |
| Time | Latitude | Longitude | Altitude | Speed | Heading |
|---|---|---|---|---|---|
| 2026-05-04 01:37 | -34.55657 | -58.41520 | 26 ft | 0 kts | 11° |
| 2026-05-04 01:49 | -34.55662 | -58.41522 | 26 ft | 2 kts | 11° |
| 2026-05-04 01:49 | -34.55677 | -58.41525 | 26 ft | 2 kts | 11° |
| 2026-05-04 01:49 | -34.55691 | -58.41529 | 26 ft | 2 kts | 11° |
| 2026-05-04 01:50 | -34.55702 | -58.41539 | 26 ft | 2 kts | 68° |
| 2026-05-04 01:50 | -34.55704 | -58.41549 | 26 ft | 2 kts | 97° |
| 2026-05-04 01:50 | -34.55702 | -58.41558 | 26 ft | 1 kts | 124° |
| 2026-05-04 01:50 | -34.55699 | -58.41563 | 26 ft | 0 kts | 118° |
| 2026-05-04 01:54 | -34.55708 | -58.41555 | 26 ft | 3 kts | 153° |
| 2026-05-04 01:54 | -34.55735 | -58.41562 | 26 ft | 5 kts | 211° |
| 2026-05-04 01:54 | -34.55769 | -58.41590 | 26 ft | 6 kts | 219° |
| 2026-05-04 01:55 | -34.55780 | -58.41617 | 26 ft | 0 kts | 258° |
| 2026-05-04 01:55 | -34.55780 | -58.41629 | 26 ft | 2 kts | 281° |
| 2026-05-04 01:55 | -34.55743 | -58.41724 | 26 ft | 23 kts | 296° |
| 2026-05-04 01:55 | -34.55653 | -58.41866 | 26 ft | 13 kts | 4° |
| 2026-05-04 01:56 | -34.55632 | -58.41787 | 26 ft | 11 kts | 110° |
| 2026-05-04 01:56 | -34.55688 | -58.41658 | 26 ft | 22 kts | 117° |
| 2026-05-04 01:56 | -34.55767 | -58.41586 | 26 ft | 11 kts | 208° |
| 2026-05-04 01:56 | -34.55829 | -58.41517 | 26 ft | 18 kts | 116° |
| 2026-05-04 01:57 | -34.55891 | -58.41370 | 26 ft | 19 kts | 118° |
| 2026-05-04 01:57 | -34.55961 | -58.41230 | 26 ft | 19 kts | 128° |
| 2026-05-04 01:57 | -34.56038 | -58.41106 | 26 ft | 17 kts | 126° |
| 2026-05-04 01:57 | -34.56112 | -58.40990 | 26 ft | 17 kts | 125° |
| 2026-05-04 01:58 | -34.56167 | -58.40881 | 26 ft | 11 kts | 92° |
| 2026-05-04 01:58 | -34.56189 | -58.40791 | 26 ft | 11 kts | 125° |
| 2026-05-04 01:58 | -34.56236 | -58.40706 | 26 ft | 12 kts | 123° |
| 2026-05-04 01:58 | -34.56289 | -58.40610 | 26 ft | 15 kts | 125° |
| 2026-05-04 01:59 | -34.56362 | -58.40520 | 26 ft | 16 kts | 137° |
| 2026-05-04 01:59 | -34.56446 | -58.40429 | 26 ft | 16 kts | 139° |
| 2026-05-04 01:59 | -34.56532 | -58.40391 | 26 ft | 13 kts | 210° |
| 2026-05-04 01:59 | -34.56535 | -58.40479 | 26 ft | 11 kts | 305° |
| 2026-05-04 02:00 | -34.56526 | -58.40494 | 26 ft | 0 kts | 305° |
| 2026-05-04 02:02 | -34.56468 | -58.40595 | 26 ft | 47 kts | 301° |
| 2026-05-04 02:02 | -34.56152 | -58.41159 | 27 ft | 114 kts | 303° |
| 2026-05-04 02:02 | -34.55605 | -58.42146 | 187 ft | 154 kts | 306° |
| 2026-05-04 02:02 | -34.55004 | -58.43219 | 758 ft | 158 kts | 306° |
| 2026-05-04 02:03 | -34.54270 | -58.44147 | 1431 ft | 156 kts | 337° |
| 2026-05-04 02:03 | -34.53215 | -58.44080 | 1991 ft | 167 kts | 25° |
| 2026-05-04 02:03 | -34.52222 | -58.43212 | 2446 ft | 185 kts | 33° |
| 2026-05-04 02:03 | -34.51164 | -58.42228 | 2876 ft | 205 kts | 33° |
| 2026-05-04 02:04 | -34.50106 | -58.40895 | 3286 ft | 235 kts | 57° |
| 2026-05-04 02:04 | -34.49678 | -58.38882 | 3789 ft | 264 kts | 88° |
| 2026-05-04 02:04 | -34.50087 | -58.36625 | 4380 ft | 284 kts | 109° |
| 2026-05-04 02:04 | -34.50858 | -58.34397 | 5174 ft | 291 kts | 111° |
| 2026-05-04 02:05 | -34.51621 | -58.32113 | 5738 ft | 294 kts | 109° |
| 2026-05-04 02:05 | -34.52306 | -58.29762 | 6379 ft | 300 kts | 107° |
| 2026-05-04 02:05 | -34.52937 | -58.27365 | 7297 ft | 302 kts | 106° |
| 2026-05-04 02:05 | -34.53549 | -58.24920 | 8165 ft | 305 kts | 106° |
| 2026-05-04 02:06 | -34.54161 | -58.22458 | 8977 ft | 308 kts | 107° |
| 2026-05-04 02:06 | -34.54785 | -58.19970 | 9762 ft | 312 kts | 108° |
| 2026-05-04 02:06 | -34.55420 | -58.17439 | 10489 ft | 317 kts | 108° |
| 2026-05-04 02:06 | -34.56069 | -58.14856 | 10885 ft | 333 kts | 108° |
| 2026-05-04 02:07 | -34.56763 | -58.12104 | 11300 ft | 347 kts | 108° |
| 2026-05-04 02:07 | -34.57457 | -58.09291 | 11979 ft | 352 kts | 109° |
| 2026-05-04 02:07 | -34.58159 | -58.06443 | 12681 ft | 355 kts | 109° |
| 2026-05-04 02:07 | -34.58875 | -58.03549 | 13370 ft | 358 kts | 110° |
| 2026-05-04 02:08 | -34.59594 | -58.00649 | 14045 ft | 361 kts | 110° |
| 2026-05-04 02:08 | -34.60317 | -57.97744 | 14703 ft | 364 kts | 110° |
| 2026-05-04 02:08 | -34.61052 | -57.94791 | 15320 ft | 368 kts | 110° |
| 2026-05-04 02:08 | -34.61794 | -57.91805 | 15911 ft | 372 kts | 110° |
| 2026-05-04 02:09 | -34.62542 | -57.88787 | 16491 ft | 377 kts | 110° |
| 2026-05-04 02:09 | -34.63297 | -57.85734 | 17060 ft | 381 kts | 110° |
| 2026-05-04 02:09 | -34.64063 | -57.82632 | 17621 ft | 385 kts | 110° |
| 2026-05-04 02:09 | -34.64833 | -57.79510 | 18170 ft | 389 kts | 110° |
| 2026-05-04 02:10 | -34.65611 | -57.76348 | 18709 ft | 393 kts | 110° |
| 2026-05-04 02:10 | -34.66388 | -57.73188 | 19228 ft | 397 kts | 110° |
| 2026-05-04 02:10 | -34.67182 | -57.69953 | 19749 ft | 401 kts | 110° |
| 2026-05-04 02:10 | -34.67981 | -57.66692 | 20257 ft | 405 kts | 110° |
| 2026-05-04 02:11 | -34.68775 | -57.63443 | 20747 ft | 409 kts | 110° |
| 2026-05-04 02:11 | -34.69588 | -57.60118 | 21232 ft | 412 kts | 110° |
| 2026-05-04 02:11 | -34.70404 | -57.56770 | 21705 ft | 416 kts | 109° |
| 2026-05-04 02:11 | -34.70848 | -57.53252 | 22118 ft | 425 kts | 88° |
| 2026-05-04 02:12 | -34.70206 | -57.49750 | 22540 ft | 427 kts | 64° |
| 2026-05-04 02:12 | -34.68622 | -57.46781 | 23025 ft | 423 kts | 47° |
| 2026-05-04 02:12 | -34.66697 | -57.44077 | 23503 ft | 424 kts | 44° |
| 2026-05-04 02:12 | -34.64713 | -57.41408 | 23931 ft | 427 kts | 44° |
| 2026-05-04 02:13 | -34.62727 | -57.38697 | 24348 ft | 431 kts | 45° |
| 2026-05-04 02:13 | -34.60760 | -57.35950 | 24753 ft | 435 kts | 46° |
| 2026-05-04 02:13 | -34.58802 | -57.33163 | 25089 ft | 440 kts | 46° |
| 2026-05-04 02:13 | -34.56828 | -57.30316 | 25446 ft | 443 kts | 46° |
| 2026-05-04 02:14 | -34.54834 | -57.27430 | 25821 ft | 446 kts | 46° |
| 2026-05-04 02:14 | -34.52838 | -57.24540 | 26187 ft | 449 kts | 46° |
| 2026-05-04 02:14 | -34.50854 | -57.21672 | 26552 ft | 452 kts | 46° |
| 2026-05-04 02:14 | -34.48808 | -57.18717 | 26932 ft | 454 kts | 46° |
| 2026-05-04 02:15 | -34.46800 | -57.15821 | 27286 ft | 456 kts | 46° |
| 2026-05-04 02:15 | -34.44750 | -57.12867 | 27634 ft | 459 kts | 46° |
| 2026-05-04 02:15 | -34.42685 | -57.09895 | 27976 ft | 461 kts | 46° |
| 2026-05-04 02:15 | -34.40628 | -57.06938 | 28311 ft | 464 kts | 47° |
| 2026-05-04 02:16 | -34.38533 | -57.03930 | 28640 ft | 466 kts | 47° |
| 2026-05-04 02:16 | -34.36459 | -57.00952 | 28959 ft | 469 kts | 47° |
| 2026-05-04 02:16 | -34.34364 | -56.97949 | 29273 ft | 471 kts | 47° |
| 2026-05-04 02:16 | -34.32236 | -56.94902 | 29585 ft | 473 kts | 47° |
| 2026-05-04 02:17 | -34.30116 | -56.91870 | 29889 ft | 475 kts | 47° |
| 2026-05-04 02:17 | -34.27996 | -56.88839 | 30186 ft | 478 kts | 47° |
| 2026-05-04 02:17 | -34.25832 | -56.85745 | 30473 ft | 480 kts | 47° |
| 2026-05-04 02:17 | -34.23680 | -56.82673 | 30741 ft | 483 kts | 47° |
| 2026-05-04 02:18 | -34.21526 | -56.79603 | 31032 ft | 485 kts | 47° |
| 2026-05-04 02:18 | -34.19331 | -56.76474 | 31400 ft | 484 kts | 47° |
| 2026-05-04 02:18 | -34.17177 | -56.73408 | 31769 ft | 484 kts | 48° |
| 2026-05-04 02:18 | -34.14992 | -56.70305 | 32182 ft | 482 kts | 48° |
| 2026-05-04 02:19 | -34.12844 | -56.67253 | 32554 ft | 481 kts | 48° |
| 2026-05-04 02:19 | -34.10666 | -56.64160 | 32876 ft | 482 kts | 48° |
| 2026-05-04 02:19 | -34.08500 | -56.61089 | 33189 ft | 482 kts | 48° |
| 2026-05-04 02:19 | -34.06339 | -56.58028 | 33497 ft | 482 kts | 48° |
| 2026-05-04 02:20 | -34.04177 | -56.54969 | 33794 ft | 483 kts | 48° |
| 2026-05-04 02:20 | -34.01978 | -56.51862 | 34086 ft | 483 kts | 48° |
| 2026-05-04 02:20 | -33.99881 | -56.48901 | 34359 ft | 484 kts | 48° |
| 2026-05-04 02:20 | -33.97688 | -56.45807 | 34642 ft | 484 kts | 48° |
| 2026-05-04 02:21 | -33.95524 | -56.42756 | 34916 ft | 484 kts | 48° |
| 2026-05-04 02:21 | -33.93322 | -56.39656 | 35187 ft | 484 kts | 48° |
| 2026-05-04 02:21 | -33.91148 | -56.36599 | 35438 ft | 485 kts | 48° |
| 2026-05-04 02:21 | -33.88938 | -56.33493 | 35646 ft | 486 kts | 47° |
| 2026-05-04 02:22 | -33.86750 | -56.30430 | 35810 ft | 488 kts | 47° |
| 2026-05-04 02:22 | -33.84525 | -56.27329 | 35979 ft | 489 kts | 47° |
| 2026-05-04 02:22 | -33.82318 | -56.24259 | 36149 ft | 490 kts | 47° |
| 2026-05-04 02:22 | -33.80100 | -56.21182 | 36304 ft | 492 kts | 48° |
| 2026-05-04 02:23 | -33.77861 | -56.18059 | 36445 ft | 494 kts | 49° |
| 2026-05-04 02:23 | -33.75638 | -56.14940 | 36592 ft | 495 kts | 49° |
| 2026-05-04 02:23 | -33.73389 | -56.11780 | 36756 ft | 496 kts | 48° |
| 2026-05-04 02:23 | -33.71160 | -56.08652 | 36941 ft | 496 kts | 48° |
| 2026-05-04 02:24 | -33.68910 | -56.05505 | 37102 ft | 497 kts | 48° |
| 2026-05-04 02:24 | -33.66648 | -56.02348 | 37150 ft | 499 kts | 48° |
| 2026-05-04 02:24 | -33.62142 | -55.96069 | 37162 ft | 499 kts | 48° |
| 2026-05-04 02:25 | -33.57626 | -55.89786 | 37164 ft | 499 kts | 48° |
| 2026-05-04 02:25 | -33.53103 | -55.83506 | 37164 ft | 499 kts | 48° |
| 2026-05-04 02:26 | -33.48560 | -55.77209 | 37165 ft | 499 kts | 48° |
| 2026-05-04 02:26 | -33.44023 | -55.70937 | 37168 ft | 497 kts | 48° |
| 2026-05-04 02:27 | -33.39548 | -55.64731 | 37173 ft | 497 kts | 48° |
| 2026-05-04 02:27 | -33.35022 | -55.58491 | 37166 ft | 496 kts | 48° |
| 2026-05-04 02:28 | -33.30524 | -55.52304 | 37165 ft | 496 kts | 48° |
| 2026-05-04 02:28 | -33.25998 | -55.46085 | 37165 ft | 496 kts | 48° |
| 2026-05-04 02:29 | -33.21485 | -55.39896 | 37166 ft | 495 kts | 48° |
| 2026-05-04 02:29 | -33.16953 | -55.33686 | 37162 ft | 494 kts | 48° |
| 2026-05-04 02:30 | -33.12483 | -55.27542 | 37164 ft | 494 kts | 48° |
| 2026-05-04 02:30 | -33.07974 | -55.21370 | 37164 ft | 494 kts | 47° |
| 2026-05-04 02:31 | -33.03447 | -55.15197 | 37165 ft | 495 kts | 47° |
| 2026-05-04 02:31 | -32.98944 | -55.09071 | 37177 ft | 495 kts | 47° |
| 2026-05-04 02:32 | -32.94402 | -55.02902 | 37185 ft | 495 kts | 47° |
| 2026-05-04 02:32 | -32.89870 | -54.96757 | 37189 ft | 495 kts | 47° |
| 2026-05-04 02:33 | -32.85329 | -54.90647 | 37190 ft | 494 kts | 47° |
| 2026-05-04 02:33 | -32.80810 | -54.84567 | 37191 ft | 495 kts | 47° |
| 2026-05-04 02:34 | -32.76271 | -54.78453 | 37191 ft | 495 kts | 47° |
| 2026-05-04 02:34 | -32.71727 | -54.72337 | 37191 ft | 495 kts | 47° |
| 2026-05-04 02:35 | -32.67166 | -54.66202 | 37191 ft | 496 kts | 47° |
| 2026-05-04 02:35 | -32.62605 | -54.60078 | 37191 ft | 496 kts | 47° |
| 2026-05-04 02:36 | -32.58043 | -54.53965 | 37191 ft | 496 kts | 47° |
| 2026-05-04 02:36 | -32.53508 | -54.47899 | 37191 ft | 496 kts | 47° |
| 2026-05-04 02:37 | -32.48942 | -54.41801 | 37191 ft | 496 kts | 47° |
| 2026-05-04 02:37 | -32.44381 | -54.35720 | 37191 ft | 496 kts | 47° |
| 2026-05-04 02:38 | -32.39806 | -54.29610 | 37190 ft | 496 kts | 47° |
| 2026-05-04 02:38 | -32.35252 | -54.23547 | 37190 ft | 496 kts | 47° |
| 2026-05-04 02:39 | -32.30691 | -54.17403 | 37191 ft | 497 kts | 47° |
| 2026-05-04 02:39 | -32.26166 | -54.11243 | 37191 ft | 497 kts | 47° |
| 2026-05-04 02:40 | -32.21637 | -54.05108 | 37191 ft | 496 kts | 47° |
| 2026-05-04 02:40 | -32.17126 | -53.99015 | 37191 ft | 496 kts | 47° |
| 2026-05-04 02:41 | -32.12579 | -53.92887 | 37191 ft | 496 kts | 47° |
| 2026-05-04 02:41 | -32.08063 | -53.86813 | 37191 ft | 496 kts | 47° |
| 2026-05-04 02:42 | -32.03512 | -53.80690 | 37191 ft | 496 kts | 47° |
| 2026-05-04 02:42 | -31.98966 | -53.74582 | 37191 ft | 496 kts | 47° |
| 2026-05-04 02:43 | -31.94431 | -53.68507 | 37192 ft | 493 kts | 47° |
| 2026-05-04 02:43 | -31.89917 | -53.62475 | 37190 ft | 492 kts | 47° |
| 2026-05-04 02:44 | -31.85413 | -53.56502 | 37153 ft | 492 kts | 47° |
| 2026-05-04 02:44 | -31.80869 | -53.50479 | 37115 ft | 492 kts | 47° |
| 2026-05-04 02:45 | -31.76363 | -53.44496 | 37096 ft | 492 kts | 47° |
| 2026-05-04 02:45 | -31.71840 | -53.38485 | 37089 ft | 490 kts | 47° |
| 2026-05-04 02:46 | -31.67359 | -53.32538 | 37084 ft | 488 kts | 46° |
| 2026-05-04 02:46 | -31.62861 | -53.26559 | 37084 ft | 488 kts | 46° |
| 2026-05-04 02:47 | -31.58375 | -53.20610 | 37093 ft | 486 kts | 46° |
| 2026-05-04 02:47 | -31.53923 | -53.14737 | 37145 ft | 485 kts | 46° |
| 2026-05-04 02:48 | -31.49427 | -53.08822 | 37187 ft | 485 kts | 46° |
| 2026-05-04 02:48 | -31.44939 | -53.02924 | 37207 ft | 485 kts | 46° |
| 2026-05-04 02:49 | -31.40463 | -52.97050 | 37215 ft | 485 kts | 46° |
| 2026-05-04 02:49 | -31.35980 | -52.91179 | 37218 ft | 485 kts | 46° |
| 2026-05-04 02:50 | -31.31490 | -52.85306 | 37219 ft | 485 kts | 46° |
| 2026-05-04 02:50 | -31.27003 | -52.79431 | 37219 ft | 485 kts | 46° |
| 2026-05-04 02:51 | -31.22521 | -52.73568 | 37219 ft | 485 kts | 45° |
| 2026-05-04 02:51 | -31.18045 | -52.67720 | 37219 ft | 484 kts | 45° |
| 2026-05-04 02:52 | -31.13578 | -52.61911 | 37219 ft | 484 kts | 45° |
| 2026-05-04 02:52 | -31.09062 | -52.56047 | 37219 ft | 484 kts | 45° |
| 2026-05-04 02:53 | -31.04569 | -52.50220 | 37224 ft | 484 kts | 45° |
| 2026-05-04 02:53 | -31.00092 | -52.44423 | 37220 ft | 484 kts | 45° |
| 2026-05-04 02:54 | -30.95571 | -52.38582 | 37220 ft | 484 kts | 45° |
| 2026-05-04 02:54 | -30.91070 | -52.32768 | 37218 ft | 484 kts | 44° |
| 2026-05-04 02:55 | -30.84240 | -52.24133 | 37219 ft | 484 kts | 43° |
| 2026-05-04 02:56 | -30.79660 | -52.18441 | 37219 ft | 484 kts | 43° |
| 2026-05-04 02:56 | -30.75077 | -52.12745 | 37219 ft | 484 kts | 43° |
| 2026-05-04 02:57 | -30.70465 | -52.07000 | 37219 ft | 485 kts | 42° |
| 2026-05-04 02:57 | -30.65876 | -52.01294 | 37216 ft | 485 kts | 42° |
| 2026-05-04 02:58 | -30.61304 | -51.95613 | 37205 ft | 485 kts | 42° |
| 2026-05-04 02:58 | -30.56680 | -51.89881 | 37198 ft | 485 kts | 42° |
| 2026-05-04 02:59 | -30.52098 | -51.84211 | 37194 ft | 485 kts | 42° |
| 2026-05-04 02:59 | -30.47480 | -51.78507 | 37193 ft | 485 kts | 42° |
| 2026-05-04 03:00 | -30.42896 | -51.72792 | 37193 ft | 486 kts | 45° |
| 2026-05-04 03:00 | -30.38447 | -51.66988 | 37193 ft | 482 kts | 47° |
| 2026-05-04 03:01 | -30.34034 | -51.61178 | 37193 ft | 481 kts | 47° |
| 2026-05-04 03:01 | -30.29613 | -51.55393 | 37193 ft | 481 kts | 47° |
| 2026-05-04 03:02 | -30.25180 | -51.49621 | 37193 ft | 481 kts | 47° |
| 2026-05-04 03:02 | -30.20763 | -51.43873 | 37193 ft | 480 kts | 46° |
| 2026-05-04 03:03 | -30.16340 | -51.38147 | 37193 ft | 480 kts | 46° |
| 2026-05-04 03:03 | -30.11876 | -51.32371 | 37192 ft | 480 kts | 46° |
| 2026-05-04 03:04 | -30.07475 | -51.26662 | 37192 ft | 480 kts | 46° |
| 2026-05-04 03:04 | -30.03031 | -51.20921 | 37192 ft | 480 kts | 45° |
| 2026-05-04 03:05 | -29.98590 | -51.15207 | 37193 ft | 479 kts | 45° |
| 2026-05-04 03:05 | -29.94161 | -51.09509 | 37193 ft | 479 kts | 45° |
| 2026-05-04 03:06 | -29.89689 | -51.03775 | 37202 ft | 479 kts | 45° |
| 2026-05-04 03:06 | -29.85228 | -50.98101 | 37212 ft | 479 kts | 45° |
| 2026-05-04 03:07 | -29.80779 | -50.92444 | 37216 ft | 479 kts | 45° |
| 2026-05-04 03:07 | -29.76331 | -50.86778 | 37218 ft | 479 kts | 45° |
| 2026-05-04 03:08 | -29.71866 | -50.81089 | 37218 ft | 481 kts | 44° |
| 2026-05-04 03:08 | -29.67365 | -50.75370 | 37219 ft | 482 kts | 44° |
| 2026-05-04 03:09 | -29.62897 | -50.69691 | 37219 ft | 482 kts | 44° |
| 2026-05-04 03:09 | -29.58399 | -50.63999 | 37219 ft | 482 kts | 44° |
| 2026-05-04 03:10 | -29.53925 | -50.58341 | 37219 ft | 482 kts | 44° |
| 2026-05-04 03:10 | -29.49382 | -50.52699 | 37229 ft | 481 kts | 43° |
| 2026-05-04 03:11 | -29.44800 | -50.47160 | 37238 ft | 481 kts | 42° |
| 2026-05-04 03:11 | -29.40190 | -50.41591 | 37243 ft | 481 kts | 42° |
| 2026-05-04 03:12 | -29.35603 | -50.36049 | 37245 ft | 481 kts | 42° |
| 2026-05-04 03:12 | -29.31011 | -50.30481 | 37244 ft | 481 kts | 42° |
| 2026-05-04 03:13 | -29.26422 | -50.24924 | 37245 ft | 481 kts | 42° |
| 2026-05-04 03:13 | -29.21854 | -50.19400 | 37245 ft | 482 kts | 41° |
| 2026-05-04 03:14 | -29.17228 | -50.13844 | 37245 ft | 482 kts | 41° |
| 2026-05-04 03:14 | -29.12608 | -50.08306 | 37245 ft | 482 kts | 40° |
| 2026-05-04 03:15 | -29.07988 | -50.02777 | 37247 ft | 482 kts | 40° |
| 2026-05-04 03:15 | -29.03366 | -49.97247 | 37291 ft | 481 kts | 40° |
| 2026-05-04 03:16 | -28.98743 | -49.91716 | 37264 ft | 482 kts | 40° |
| 2026-05-04 03:16 | -28.94120 | -49.86207 | 37251 ft | 482 kts | 41° |
| 2026-05-04 03:17 | -28.89525 | -49.80708 | 37246 ft | 483 kts | 41° |
| 2026-05-04 03:17 | -28.84995 | -49.75036 | 37245 ft | 483 kts | 43° |
| 2026-05-04 03:18 | -28.80520 | -49.69364 | 37245 ft | 484 kts | 42° |
| 2026-05-04 03:18 | -28.75985 | -49.63652 | 37245 ft | 484 kts | 42° |
| 2026-05-04 03:19 | -28.71503 | -49.58014 | 37250 ft | 485 kts | 41° |
| 2026-05-04 03:19 | -28.66968 | -49.52330 | 37263 ft | 485 kts | 41° |
| 2026-05-04 03:20 | -28.62448 | -49.46672 | 37269 ft | 485 kts | 41° |
| 2026-05-04 03:20 | -28.57918 | -49.41006 | 37272 ft | 485 kts | 41° |
| 2026-05-04 03:21 | -28.53391 | -49.35352 | 37273 ft | 485 kts | 41° |
| 2026-05-04 03:21 | -28.48852 | -49.29668 | 37272 ft | 485 kts | 41° |
| 2026-05-04 03:22 | -28.44344 | -49.24035 | 37273 ft | 485 kts | 41° |
| 2026-05-04 03:22 | -28.39802 | -49.18375 | 37273 ft | 486 kts | 41° |
| 2026-05-04 03:23 | -28.35250 | -49.12725 | 37273 ft | 486 kts | 41° |
| 2026-05-04 03:23 | -28.30698 | -49.07087 | 37273 ft | 486 kts | 41° |
| 2026-05-04 03:24 | -28.26144 | -49.01432 | 37273 ft | 486 kts | 41° |
| 2026-05-04 03:24 | -28.21629 | -48.95758 | 37273 ft | 486 kts | 41° |
| 2026-05-04 03:25 | -28.17128 | -48.90091 | 37275 ft | 486 kts | 41° |
| 2026-05-04 03:25 | -28.12615 | -48.84432 | 37285 ft | 486 kts | 41° |
| 2026-05-04 03:26 | -28.08100 | -48.78786 | 37262 ft | 486 kts | 41° |
| 2026-05-04 03:26 | -28.03570 | -48.73125 | 37252 ft | 486 kts | 41° |
| 2026-05-04 03:27 | -27.99020 | -48.67450 | 37248 ft | 486 kts | 41° |
| 2026-05-04 03:27 | -27.94513 | -48.61841 | 37248 ft | 486 kts | 41° |
| 2026-05-04 03:28 | -27.89965 | -48.56188 | 37247 ft | 486 kts | 41° |
| 2026-05-04 03:28 | -27.85385 | -48.50531 | 37247 ft | 486 kts | 41° |
| 2026-05-04 03:29 | -27.80840 | -48.44917 | 37247 ft | 486 kts | 41° |
| 2026-05-04 03:29 | -27.76308 | -48.39307 | 37247 ft | 486 kts | 41° |
| 2026-05-04 03:30 | -27.71768 | -48.33688 | 37242 ft | 487 kts | 41° |
| 2026-05-04 03:30 | -27.67199 | -48.28014 | 37246 ft | 487 kts | 41° |
| 2026-05-04 03:31 | -27.62648 | -48.22382 | 37247 ft | 488 kts | 41° |
| 2026-05-04 03:31 | -27.58096 | -48.16772 | 37247 ft | 488 kts | 41° |
| 2026-05-04 03:32 | -27.53514 | -48.11137 | 37247 ft | 488 kts | 41° |
| 2026-05-04 03:32 | -27.48920 | -48.05495 | 37247 ft | 488 kts | 41° |
| 2026-05-04 03:33 | -27.44339 | -47.99882 | 37247 ft | 488 kts | 41° |
| 2026-05-04 03:33 | -27.39771 | -47.94290 | 37247 ft | 488 kts | 41° |
| 2026-05-04 03:34 | -27.35172 | -47.88678 | 37247 ft | 488 kts | 40° |
| 2026-05-04 03:34 | -27.30587 | -47.83119 | 37249 ft | 488 kts | 40° |
| 2026-05-04 03:35 | -27.25971 | -47.77535 | 37251 ft | 488 kts | 40° |
| 2026-05-04 03:35 | -27.21345 | -47.71936 | 37247 ft | 490 kts | 40° |
| 2026-05-04 03:36 | -27.16746 | -47.66383 | 37247 ft | 490 kts | 40° |
| 2026-05-04 03:36 | -27.12101 | -47.60783 | 37251 ft | 490 kts | 40° |
| 2026-05-04 03:37 | -27.07470 | -47.55208 | 37264 ft | 490 kts | 40° |
| 2026-05-04 03:37 | -27.02832 | -47.49633 | 37271 ft | 490 kts | 40° |
| 2026-05-04 03:38 | -26.98176 | -47.44046 | 37273 ft | 490 kts | 40° |
| 2026-05-04 03:38 | -26.93556 | -47.38511 | 37274 ft | 490 kts | 40° |
| 2026-05-04 03:39 | -26.88900 | -47.32935 | 37271 ft | 490 kts | 40° |
| 2026-05-04 03:39 | -26.84251 | -47.27366 | 37273 ft | 490 kts | 40° |
| 2026-05-04 03:40 | -26.79613 | -47.21834 | 37273 ft | 490 kts | 40° |
| 2026-05-04 03:40 | -26.74947 | -47.16275 | 37273 ft | 490 kts | 40° |
| 2026-05-04 03:41 | -26.70294 | -47.10733 | 37272 ft | 493 kts | 40° |
| 2026-05-04 03:41 | -26.65579 | -47.05139 | 37273 ft | 494 kts | 40° |
| 2026-05-04 03:42 | -26.60889 | -46.99588 | 37273 ft | 494 kts | 40° |
| 2026-05-04 03:42 | -26.56180 | -46.94026 | 37273 ft | 494 kts | 40° |
| 2026-05-04 03:43 | -26.51463 | -46.88480 | 37273 ft | 494 kts | 40° |
| 2026-05-04 03:43 | -26.46767 | -46.82972 | 37273 ft | 494 kts | 40° |
| 2026-05-04 03:44 | -26.42042 | -46.77438 | 37273 ft | 494 kts | 40° |
| 2026-05-04 03:44 | -26.37306 | -46.71892 | 37273 ft | 494 kts | 40° |
| 2026-05-04 03:45 | -26.32582 | -46.66352 | 37273 ft | 494 kts | 40° |
| 2026-05-04 03:45 | -26.27887 | -46.60861 | 37273 ft | 494 kts | 40° |
| 2026-05-04 03:46 | -26.23152 | -46.55333 | 37274 ft | 493 kts | 40° |
| 2026-05-04 03:46 | -26.18419 | -46.49814 | 37274 ft | 493 kts | 39° |
| 2026-05-04 03:47 | -26.13718 | -46.44348 | 37274 ft | 493 kts | 39° |
| 2026-05-04 03:47 | -26.08977 | -46.38827 | 37299 ft | 493 kts | 39° |
| 2026-05-04 03:48 | -26.04216 | -46.33316 | 37284 ft | 493 kts | 39° |
| 2026-05-04 03:48 | -25.99516 | -46.27842 | 37264 ft | 493 kts | 39° |
| 2026-05-04 03:49 | -25.94770 | -46.22332 | 37253 ft | 492 kts | 39° |
| 2026-05-04 03:49 | -25.90040 | -46.16859 | 37249 ft | 492 kts | 39° |
| 2026-05-04 03:50 | -25.85300 | -46.11412 | 37247 ft | 492 kts | 39° |
| 2026-05-04 03:50 | -25.80554 | -46.05959 | 37247 ft | 492 kts | 39° |
| 2026-05-04 03:51 | -25.75820 | -46.00510 | 37247 ft | 492 kts | 39° |
| 2026-05-04 03:51 | -25.71063 | -45.95037 | 37247 ft | 490 kts | 39° |
| 2026-05-04 03:52 | -25.66363 | -45.89639 | 37247 ft | 490 kts | 39° |
| 2026-05-04 03:52 | -25.61627 | -45.84195 | 37247 ft | 491 kts | 39° |
| 2026-05-04 03:53 | -25.56905 | -45.78776 | 37247 ft | 490 kts | 39° |
| 2026-05-04 03:53 | -25.52188 | -45.73372 | 37249 ft | 490 kts | 39° |
| 2026-05-04 03:54 | -25.47491 | -45.67997 | 37247 ft | 488 kts | 39° |
| 2026-05-04 03:54 | -25.42760 | -45.62598 | 37247 ft | 488 kts | 39° |
| 2026-05-04 03:55 | -25.38045 | -45.57221 | 37247 ft | 488 kts | 39° |
| 2026-05-04 03:55 | -25.33336 | -45.51856 | 37247 ft | 488 kts | 39° |
| 2026-05-04 03:56 | -25.28618 | -45.46487 | 37247 ft | 488 kts | 39° |
| 2026-05-04 03:56 | -25.23889 | -45.41113 | 37249 ft | 488 kts | 39° |
| 2026-05-04 03:57 | -25.19187 | -45.35775 | 37248 ft | 486 kts | 39° |
| 2026-05-04 03:57 | -25.14498 | -45.30434 | 37246 ft | 486 kts | 38° |
| 2026-05-04 03:58 | -25.07456 | -45.22424 | 37246 ft | 486 kts | 38° |
| 2026-05-04 03:58 | -25.02743 | -45.17091 | 37247 ft | 487 kts | 37° |
| 2026-05-04 03:59 | -24.98023 | -45.11768 | 37247 ft | 487 kts | 37° |
| 2026-05-04 03:59 | -24.93304 | -45.06448 | 37247 ft | 487 kts | 37° |
| 2026-05-04 04:00 | -24.88563 | -45.01112 | 37247 ft | 487 kts | 37° |
| 2026-05-04 04:00 | -24.83838 | -44.95825 | 37247 ft | 487 kts | 37° |
| 2026-05-04 04:01 | -24.79089 | -44.90501 | 37247 ft | 487 kts | 37° |
| 2026-05-04 04:01 | -24.74359 | -44.85194 | 37247 ft | 487 kts | 37° |
| 2026-05-04 04:02 | -24.69626 | -44.79883 | 37247 ft | 489 kts | 37° |
| 2026-05-04 04:02 | -24.64883 | -44.74575 | 37247 ft | 489 kts | 37° |
| 2026-05-04 04:03 | -24.60126 | -44.69257 | 37163 ft | 490 kts | 37° |
| 2026-05-04 04:03 | -24.57742 | -44.66594 | 36910 ft | 488 kts | 37° |
| 2026-05-04 04:03 | -24.55377 | -44.63950 | 36661 ft | 485 kts | 37° |
| 2026-05-04 04:04 | -24.52985 | -44.61400 | 36370 ft | 479 kts | 33° |
| 2026-05-04 04:04 | -24.50484 | -44.59042 | 36004 ft | 471 kts | 29° |
| 2026-05-04 04:04 | -24.47886 | -44.56910 | 35480 ft | 466 kts | 25° |
| 2026-05-04 04:04 | -24.45205 | -44.55009 | 34902 ft | 461 kts | 21° |
| 2026-05-04 04:05 | -24.42400 | -44.53300 | 34294 ft | 457 kts | 17° |
| 2026-05-04 04:05 | -24.39579 | -44.51729 | 33674 ft | 458 kts | 17° |
| 2026-05-04 04:05 | -24.36722 | -44.50158 | 33037 ft | 460 kts | 17° |
| 2026-05-04 04:05 | -24.33862 | -44.48581 | 32385 ft | 462 kts | 17° |
| 2026-05-04 04:06 | -24.31011 | -44.47000 | 31819 ft | 462 kts | 17° |
| 2026-05-04 04:06 | -24.28155 | -44.45407 | 31377 ft | 458 kts | 18° |
| 2026-05-04 04:06 | -24.25347 | -44.43837 | 30930 ft | 455 kts | 18° |
| 2026-05-04 04:06 | -24.22548 | -44.42274 | 30495 ft | 451 kts | 18° |
| 2026-05-04 04:07 | -24.19767 | -44.40721 | 30068 ft | 447 kts | 18° |
| 2026-05-04 04:07 | -24.17045 | -44.39202 | 29639 ft | 444 kts | 18° |
| 2026-05-04 04:07 | -24.14311 | -44.37678 | 29196 ft | 441 kts | 18° |
| 2026-05-04 04:07 | -24.11590 | -44.36163 | 28745 ft | 438 kts | 18° |
| 2026-05-04 04:08 | -24.08889 | -44.34659 | 28289 ft | 436 kts | 18° |
| 2026-05-04 04:08 | -24.06202 | -44.33151 | 27842 ft | 433 kts | 19° |
| 2026-05-04 04:08 | -24.03526 | -44.31650 | 27528 ft | 431 kts | 19° |
| 2026-05-04 04:08 | -24.00864 | -44.30165 | 27606 ft | 438 kts | 19° |
| 2026-05-04 04:09 | -23.98170 | -44.28667 | 27242 ft | 437 kts | 19° |
| 2026-05-04 04:09 | -23.95457 | -44.27159 | 26684 ft | 436 kts | 19° |
| 2026-05-04 04:09 | -23.92762 | -44.25651 | 26040 ft | 438 kts | 22° |
| 2026-05-04 04:09 | -23.90309 | -44.23698 | 25342 ft | 446 kts | 40° |
| 2026-05-04 04:10 | -23.88463 | -44.21083 | 24682 ft | 449 kts | 58° |
| 2026-05-04 04:10 | -23.87078 | -44.18095 | 24322 ft | 444 kts | 64° |
| 2026-05-04 04:10 | -23.85799 | -44.15024 | 24201 ft | 440 kts | 64° |
| 2026-05-04 04:10 | -23.84540 | -44.12026 | 23666 ft | 437 kts | 64° |
| 2026-05-04 04:11 | -23.83243 | -44.09034 | 23054 ft | 432 kts | 63° |
| 2026-05-04 04:11 | -23.81825 | -44.06192 | 22578 ft | 421 kts | 50° |
| 2026-05-04 04:11 | -23.79726 | -44.04092 | 22153 ft | 400 kts | 24° |
| 2026-05-04 04:11 | -23.77213 | -44.03143 | 21784 ft | 378 kts | 360° |
| 2026-05-04 04:12 | -23.74634 | -44.02991 | 21429 ft | 370 kts | 354° |
| 2026-05-04 04:12 | -23.72057 | -44.02949 | 21062 ft | 367 kts | 354° |
| 2026-05-04 04:12 | -23.69540 | -44.02880 | 20692 ft | 366 kts | 355° |
| 2026-05-04 04:12 | -23.66993 | -44.02770 | 20315 ft | 365 kts | 356° |
| 2026-05-04 04:13 | -23.64466 | -44.02632 | 19941 ft | 363 kts | 357° |
| 2026-05-04 04:13 | -23.61952 | -44.02480 | 19567 ft | 362 kts | 357° |
| 2026-05-04 04:13 | -23.59463 | -44.02322 | 19197 ft | 360 kts | 357° |
| 2026-05-04 04:13 | -23.56951 | -44.02161 | 18822 ft | 359 kts | 358° |
| 2026-05-04 04:14 | -23.54480 | -44.02002 | 18446 ft | 357 kts | 358° |
| 2026-05-04 04:14 | -23.51997 | -44.01842 | 18072 ft | 356 kts | 358° |
| 2026-05-04 04:14 | -23.49554 | -44.01685 | 17706 ft | 354 kts | 358° |
| 2026-05-04 04:14 | -23.47103 | -44.01528 | 17338 ft | 352 kts | 358° |
| 2026-05-04 04:15 | -23.44686 | -44.01374 | 16977 ft | 350 kts | 358° |
| 2026-05-04 04:15 | -23.42242 | -44.01218 | 16611 ft | 348 kts | 359° |
| 2026-05-04 04:15 | -23.39849 | -44.01065 | 16250 ft | 347 kts | 359° |
| 2026-05-04 04:15 | -23.37456 | -44.00912 | 15889 ft | 345 kts | 359° |
| 2026-05-04 04:16 | -23.35051 | -44.00760 | 15523 ft | 343 kts | 359° |
| 2026-05-04 04:16 | -23.32696 | -44.00610 | 15164 ft | 341 kts | 360° |
| 2026-05-04 04:16 | -23.30348 | -44.00460 | 14805 ft | 339 kts | 360° |
| 2026-05-04 04:16 | -23.28008 | -44.00312 | 14444 ft | 337 kts | 0° |
| 2026-05-04 04:17 | -23.25677 | -44.00164 | 14084 ft | 335 kts | 0° |
| 2026-05-04 04:17 | -23.23372 | -44.00016 | 13721 ft | 334 kts | 0° |
| 2026-05-04 04:17 | -23.21045 | -43.99867 | 13344 ft | 332 kts | 0° |
| 2026-05-04 04:17 | -23.18763 | -43.99713 | 12970 ft | 332 kts | 3° |
| 2026-05-04 04:18 | -23.16544 | -43.99019 | 12557 ft | 337 kts | 28° |
| 2026-05-04 04:18 | -23.14853 | -43.97295 | 12176 ft | 340 kts | 56° |
| 2026-05-04 04:18 | -23.13795 | -43.95007 | 11819 ft | 339 kts | 65° |
| 2026-05-04 04:18 | -23.12855 | -43.92675 | 11453 ft | 337 kts | 65° |
| 2026-05-04 04:19 | -23.11912 | -43.90344 | 11086 ft | 335 kts | 64° |
| 2026-05-04 04:19 | -23.10965 | -43.88053 | 10785 ft | 330 kts | 64° |
| 2026-05-04 04:19 | -23.10028 | -43.85827 | 10519 ft | 324 kts | 64° |
| 2026-05-04 04:19 | -23.09084 | -43.83607 | 10264 ft | 318 kts | 63° |
| 2026-05-04 04:20 | -23.08165 | -43.81458 | 10081 ft | 311 kts | 63° |
| 2026-05-04 04:20 | -23.07257 | -43.79344 | 9808 ft | 306 kts | 63° |
| 2026-05-04 04:20 | -23.06362 | -43.77262 | 9535 ft | 302 kts | 63° |
| 2026-05-04 04:20 | -23.05473 | -43.75201 | 9135 ft | 302 kts | 63° |
| 2026-05-04 04:21 | -23.04591 | -43.73153 | 8910 ft | 296 kts | 63° |
| 2026-05-04 04:21 | -23.03724 | -43.71143 | 8522 ft | 297 kts | 63° |
| 2026-05-04 04:21 | -23.02836 | -43.69094 | 8109 ft | 299 kts | 63° |
| 2026-05-04 04:21 | -23.01933 | -43.67039 | 7557 ft | 306 kts | 64° |
| 2026-05-04 04:22 | -23.01011 | -43.64943 | 6960 ft | 314 kts | 65° |
| 2026-05-04 04:22 | -23.00061 | -43.62777 | 6448 ft | 317 kts | 65° |
| 2026-05-04 04:22 | -22.99119 | -43.60624 | 6251 ft | 308 kts | 65° |
| 2026-05-04 04:22 | -22.98230 | -43.58597 | 6188 ft | 291 kts | 65° |
| 2026-05-04 04:23 | -22.97377 | -43.56654 | 6093 ft | 276 kts | 65° |
| 2026-05-04 04:23 | -22.96570 | -43.54822 | 6015 ft | 260 kts | 65° |
| 2026-05-04 04:23 | -22.95826 | -43.53110 | 5938 ft | 248 kts | 70° |
| 2026-05-04 04:23 | -22.95505 | -43.51293 | 5850 ft | 243 kts | 95° |
| 2026-05-04 04:24 | -22.95915 | -43.49542 | 5767 ft | 239 kts | 120° |
| 2026-05-04 04:24 | -22.96848 | -43.48055 | 5694 ft | 238 kts | 129° |
| 2026-05-04 04:24 | -22.97864 | -43.46667 | 5620 ft | 237 kts | 130° |
| 2026-05-04 04:24 | -22.98898 | -43.45264 | 5545 ft | 236 kts | 130° |
| 2026-05-04 04:25 | -22.99908 | -43.43877 | 5471 ft | 236 kts | 129° |
| 2026-05-04 04:25 | -23.00929 | -43.42457 | 5396 ft | 235 kts | 129° |
| 2026-05-04 04:25 | -23.01929 | -43.41056 | 5322 ft | 235 kts | 129° |
| 2026-05-04 04:25 | -23.02934 | -43.39640 | 5246 ft | 235 kts | 129° |
| 2026-05-04 04:26 | -23.03923 | -43.38245 | 5172 ft | 235 kts | 128° |
| 2026-05-04 04:26 | -23.04920 | -43.36834 | 5097 ft | 235 kts | 128° |
| 2026-05-04 04:26 | -23.05915 | -43.35425 | 5025 ft | 239 kts | 128° |
| 2026-05-04 04:26 | -23.06950 | -43.33952 | 4950 ft | 248 kts | 127° |
| 2026-05-04 04:27 | -23.07989 | -43.32465 | 4875 ft | 249 kts | 127° |
| 2026-05-04 04:27 | -23.09036 | -43.30967 | 4800 ft | 249 kts | 127° |
| 2026-05-04 04:27 | -23.10083 | -43.29474 | 4725 ft | 248 kts | 127° |
| 2026-05-04 04:27 | -23.11124 | -43.27991 | 4650 ft | 248 kts | 127° |
| 2026-05-04 04:28 | -23.12176 | -43.26493 | 4575 ft | 248 kts | 127° |
| 2026-05-04 04:28 | -23.13222 | -43.25004 | 4500 ft | 247 kts | 127° |
| 2026-05-04 04:28 | -23.14254 | -43.23537 | 4425 ft | 248 kts | 127° |
| 2026-05-04 04:28 | -23.15307 | -43.22040 | 4351 ft | 248 kts | 127° |
| 2026-05-04 04:29 | -23.16341 | -43.20569 | 4271 ft | 243 kts | 128° |
| 2026-05-04 04:29 | -23.17338 | -43.19130 | 4192 ft | 234 kts | 123° |
| 2026-05-04 04:29 | -23.17921 | -43.17535 | 4104 ft | 225 kts | 98° |
| 2026-05-04 04:29 | -23.17825 | -43.15849 | 3987 ft | 223 kts | 73° |
| 2026-05-04 04:30 | -23.17096 | -43.14367 | 3891 ft | 224 kts | 49° |
| 2026-05-04 04:30 | -23.15883 | -43.13352 | 3795 ft | 223 kts | 25° |
| 2026-05-04 04:30 | -23.14423 | -43.12765 | 3701 ft | 222 kts | 18° |
| 2026-05-04 04:30 | -23.12950 | -43.12266 | 3601 ft | 222 kts | 18° |
| 2026-05-04 04:31 | -23.11479 | -43.11769 | 3519 ft | 221 kts | 18° |
| 2026-05-04 04:31 | -23.10018 | -43.11275 | 3385 ft | 224 kts | 14° |
| 2026-05-04 04:31 | -23.08461 | -43.11149 | 3133 ft | 224 kts | 355° |
| 2026-05-04 04:31 | -23.06915 | -43.11385 | 2885 ft | 224 kts | 351° |
| 2026-05-04 04:32 | -23.05387 | -43.11681 | 2635 ft | 224 kts | 351° |
| 2026-05-04 04:32 | -23.03860 | -43.11975 | 2386 ft | 223 kts | 351° |
| 2026-05-04 04:32 | -23.02334 | -43.12257 | 2137 ft | 223 kts | 352° |
| 2026-05-04 04:32 | -23.00816 | -43.12532 | 2014 ft | 218 kts | 352° |
| 2026-05-04 04:33 | -22.99337 | -43.12806 | 2011 ft | 215 kts | 351° |
| 2026-05-04 04:33 | -22.97902 | -43.13074 | 2002 ft | 204 kts | 351° |
| 2026-05-04 04:33 | -22.96556 | -43.13325 | 2100 ft | 193 kts | 352° |
| 2026-05-04 04:33 | -22.95247 | -43.13661 | 1941 ft | 194 kts | 337° |
| 2026-05-04 04:34 | -22.94219 | -43.14592 | 1548 ft | 202 kts | 307° |
| 2026-05-04 04:34 | -22.93334 | -43.15728 | 1507 ft | 185 kts | 324° |
| 2026-05-04 04:34 | -22.92203 | -43.16180 | 1490 ft | 166 kts | 353° |
| 2026-05-04 04:34 | -22.91136 | -43.16109 | 1447 ft | 151 kts | 30° |
| 2026-05-04 04:35 | -22.90332 | -43.15398 | 1456 ft | 147 kts | 39° |
| 2026-05-04 04:35 | -22.89521 | -43.14751 | 1456 ft | 146 kts | 47° |
| 2026-05-04 04:35 | -22.89244 | -43.13742 | 1437 ft | 147 kts | 105° |
| 2026-05-04 04:35 | -22.89857 | -43.12870 | 1459 ft | 151 kts | 149° |
| 2026-05-04 04:36 | -22.90879 | -43.12705 | 1457 ft | 153 kts | 194° |
| 2026-05-04 04:36 | -22.91712 | -43.13379 | 1226 ft | 153 kts | 243° |
| 2026-05-04 04:36 | -22.92030 | -43.14471 | 1028 ft | 155 kts | 252° |
| 2026-05-04 04:36 | -22.92658 | -43.15387 | 1011 ft | 155 kts | 210° |
| 2026-05-04 04:37 | -22.95742 | -43.16119 | 2052 ft | 153 kts | 186° |
| 2026-05-04 04:37 | -22.96794 | -43.16280 | 2407 ft | 155 kts | 186° |
| 2026-05-04 04:38 | -22.97857 | -43.16443 | 2488 ft | 155 kts | 186° |
| 2026-05-04 04:38 | -22.98932 | -43.16608 | 2497 ft | 154 kts | 186° |
| 2026-05-04 04:38 | -22.99992 | -43.16752 | 2499 ft | 154 kts | 178° |
| 2026-05-04 04:38 | -23.00921 | -43.16317 | 2466 ft | 149 kts | 121° |
| 2026-05-04 04:39 | -23.01093 | -43.15251 | 2495 ft | 149 kts | 76° |
| 2026-05-04 04:39 | -23.00541 | -43.14322 | 2496 ft | 150 kts | 36° |
| 2026-05-04 04:39 | -22.99543 | -43.14032 | 2499 ft | 153 kts | 352° |
| 2026-05-04 04:39 | -22.98558 | -43.14468 | 2521 ft | 155 kts | 336° |
| 2026-05-04 04:40 | -22.97528 | -43.14659 | 2500 ft | 152 kts | 8° |
| 2026-05-04 04:40 | -22.96463 | -43.14625 | 2569 ft | 159 kts | 344° |
| 2026-05-04 04:40 | -22.95686 | -43.15443 | 3028 ft | 165 kts | 284° |
| 2026-05-04 04:40 | -22.95856 | -43.16591 | 3733 ft | 158 kts | 234° |
| 2026-05-04 04:41 | -22.96677 | -43.17314 | 4362 ft | 156 kts | 199° |
| 2026-05-04 04:41 | -22.97727 | -43.17410 | 4969 ft | 156 kts | 173° |
| 2026-05-04 04:41 | -22.98793 | -43.17465 | 5558 ft | 158 kts | 204° |
| 2026-05-04 04:41 | -22.99524 | -43.18376 | 5861 ft | 177 kts | 259° |
| 2026-05-04 04:42 | -22.99317 | -43.19768 | 5986 ft | 200 kts | 300° |
| 2026-05-04 04:42 | -22.98515 | -43.21022 | 6010 ft | 203 kts | 298° |
| 2026-05-04 04:42 | -22.98238 | -43.22459 | 5993 ft | 200 kts | 255° |
| 2026-05-04 04:42 | -22.98979 | -43.23696 | 6005 ft | 199 kts | 210° |
| 2026-05-04 04:43 | -23.00304 | -43.23987 | 6014 ft | 200 kts | 172° |
| 2026-05-04 04:43 | -23.01657 | -43.23727 | 6016 ft | 200 kts | 179° |
| 2026-05-04 04:43 | -23.02986 | -43.24073 | 6010 ft | 199 kts | 208° |
| 2026-05-04 04:43 | -23.04147 | -43.24883 | 6012 ft | 199 kts | 216° |
| 2026-05-04 04:44 | -23.05053 | -43.26009 | 5981 ft | 199 kts | 252° |
| 2026-05-04 04:44 | -23.05100 | -43.27493 | 6015 ft | 201 kts | 276° |
| 2026-05-04 04:44 | -23.05112 | -43.28990 | 6005 ft | 199 kts | 250° |
| 2026-05-04 04:44 | -23.05767 | -43.30300 | 6023 ft | 198 kts | 225° |
| 2026-05-04 04:45 | -23.06795 | -43.31310 | 6035 ft | 198 kts | 222° |
| 2026-05-04 04:45 | -23.07782 | -43.32342 | 6031 ft | 198 kts | 224° |
| 2026-05-04 04:45 | -23.08740 | -43.33398 | 6029 ft | 198 kts | 224° |
| 2026-05-04 04:47 | -23.16319 | -43.37722 | 6032 ft | 219 kts | 216° |
| 2026-05-04 04:47 | -23.17508 | -43.38744 | 6031 ft | 219 kts | 218° |
| 2026-05-04 04:47 | -23.18673 | -43.39789 | 6030 ft | 219 kts | 219° |
| 2026-05-04 04:47 | -23.19852 | -43.40855 | 6029 ft | 219 kts | 219° |
| 2026-05-04 04:48 | -23.21014 | -43.41908 | 6029 ft | 219 kts | 219° |
| 2026-05-04 04:49 | -23.25685 | -43.46142 | 6027 ft | 219 kts | 219° |
| 2026-05-04 04:49 | -23.26871 | -43.47212 | 6028 ft | 221 kts | 219° |
| 2026-05-04 04:49 | -23.28039 | -43.48267 | 6029 ft | 221 kts | 219° |
| 2026-05-04 04:49 | -23.29229 | -43.49345 | 6029 ft | 221 kts | 219° |
| 2026-05-04 04:50 | -23.30407 | -43.50413 | 6029 ft | 221 kts | 219° |
| 2026-05-04 04:50 | -23.31534 | -43.51544 | 6027 ft | 222 kts | 229° |
| 2026-05-04 04:50 | -23.32561 | -43.52803 | 6029 ft | 221 kts | 224° |
| 2026-05-04 04:50 | -23.33665 | -43.53950 | 6029 ft | 221 kts | 222° |
| 2026-05-04 04:51 | -23.34800 | -43.55094 | 6029 ft | 221 kts | 222° |
| 2026-05-04 04:51 | -23.35931 | -43.56244 | 6029 ft | 221 kts | 222° |
| 2026-05-04 04:51 | -23.37044 | -43.57389 | 6029 ft | 221 kts | 223° |
| 2026-05-04 04:51 | -23.38151 | -43.58540 | 6029 ft | 221 kts | 223° |
| 2026-05-04 04:52 | -23.39272 | -43.59708 | 6029 ft | 221 kts | 223° |
| 2026-05-04 04:52 | -23.40378 | -43.60865 | 6029 ft | 221 kts | 223° |
| 2026-05-04 04:52 | -23.41495 | -43.62036 | 6029 ft | 221 kts | 223° |
| 2026-05-04 04:52 | -23.42591 | -43.63187 | 6029 ft | 221 kts | 223° |
| 2026-05-04 04:53 | -23.43706 | -43.64360 | 6029 ft | 221 kts | 223° |
| 2026-05-04 04:53 | -23.44648 | -43.65670 | 6013 ft | 222 kts | 250° |
| 2026-05-04 04:53 | -23.44684 | -43.67330 | 6021 ft | 225 kts | 290° |
| 2026-05-04 04:53 | -23.43803 | -43.68709 | 6016 ft | 224 kts | 322° |
| 2026-05-04 04:54 | -23.42403 | -43.69349 | 6015 ft | 224 kts | 354° |
| 2026-05-04 04:54 | -23.40842 | -43.69470 | 6010 ft | 224 kts | 349° |
| 2026-05-04 04:54 | -23.39493 | -43.70262 | 5992 ft | 223 kts | 308° |
| 2026-05-04 04:54 | -23.38922 | -43.71804 | 6010 ft | 222 kts | 278° |
| 2026-05-04 04:55 | -23.38591 | -43.73422 | 5998 ft | 222 kts | 294° |
| 2026-05-04 04:55 | -23.37763 | -43.74858 | 6008 ft | 223 kts | 307° |
| 2026-05-04 04:55 | -23.36814 | -43.76176 | 6008 ft | 222 kts | 309° |
| 2026-05-04 04:55 | -23.35849 | -43.77500 | 6008 ft | 222 kts | 310° |
| 2026-05-04 04:56 | -23.34891 | -43.78814 | 6008 ft | 221 kts | 310° |
| 2026-05-04 04:56 | -23.33941 | -43.80116 | 6007 ft | 221 kts | 310° |
| 2026-05-04 04:56 | -23.32991 | -43.81417 | 6007 ft | 220 kts | 310° |
| 2026-05-04 04:56 | -23.32014 | -43.82722 | 6008 ft | 220 kts | 312° |
| 2026-05-04 04:57 | -23.31006 | -43.83954 | 6008 ft | 219 kts | 313° |
| 2026-05-04 04:57 | -23.29986 | -43.85170 | 6007 ft | 219 kts | 313° |
| 2026-05-04 04:57 | -23.28842 | -43.86263 | 5998 ft | 217 kts | 334° |
| 2026-05-04 04:57 | -23.27420 | -43.86815 | 6009 ft | 217 kts | 346° |
| 2026-05-04 04:58 | -23.26010 | -43.87329 | 5996 ft | 218 kts | 329° |
| 2026-05-04 04:58 | -23.24940 | -43.88490 | 6006 ft | 219 kts | 306° |
| 2026-05-04 04:58 | -23.24077 | -43.89860 | 6006 ft | 219 kts | 307° |
| 2026-05-04 04:58 | -23.23152 | -43.91190 | 6020 ft | 220 kts | 311° |
| 2026-05-04 04:59 | -23.22153 | -43.92451 | 6018 ft | 220 kts | 314° |
| 2026-05-04 04:59 | -23.21119 | -43.93666 | 6012 ft | 220 kts | 315° |
| 2026-05-04 04:59 | -23.20112 | -43.94942 | 6009 ft | 222 kts | 310° |
| 2026-05-04 04:59 | -23.18983 | -43.96014 | 5998 ft | 219 kts | 338° |
| 2026-05-04 05:00 | -23.17537 | -43.96571 | 6006 ft | 220 kts | 339° |
| 2026-05-04 05:00 | -23.16330 | -43.97552 | 6003 ft | 223 kts | 311° |
| 2026-05-04 05:00 | -23.13896 | -43.99459 | 6001 ft | 219 kts | 358° |
| 2026-05-04 05:01 | -23.12447 | -43.99135 | 6003 ft | 215 kts | 32° |
| 2026-05-04 05:01 | -23.11432 | -43.97996 | 6006 ft | 214 kts | 63° |
| 2026-05-04 05:01 | -23.10881 | -43.96493 | 6008 ft | 214 kts | 74° |
| 2026-05-04 05:01 | -23.10521 | -43.94917 | 6008 ft | 213 kts | 77° |
| 2026-05-04 05:02 | -23.10208 | -43.93339 | 6007 ft | 213 kts | 78° |
| 2026-05-04 05:02 | -23.09906 | -43.91777 | 6007 ft | 213 kts | 78° |
| 2026-05-04 05:02 | -23.09602 | -43.90197 | 6007 ft | 213 kts | 78° |
| 2026-05-04 05:02 | -23.09298 | -43.88612 | 6007 ft | 213 kts | 78° |
| 2026-05-04 05:03 | -23.08995 | -43.87036 | 6007 ft | 213 kts | 78° |
| 2026-05-04 05:03 | -23.08612 | -43.85473 | 6008 ft | 213 kts | 71° |
| 2026-05-04 05:04 | -23.06967 | -43.80759 | 6011 ft | 249 kts | 68° |
| 2026-05-04 05:04 | -23.06294 | -43.79001 | 6008 ft | 254 kts | 67° |
| 2026-05-04 05:04 | -23.05597 | -43.77231 | 6008 ft | 255 kts | 67° |
| 2026-05-04 05:06 | -23.00498 | -43.64628 | 5888 ft | 262 kts | 67° |
| 2026-05-04 05:06 | -22.99757 | -43.62838 | 5564 ft | 262 kts | 67° |
| 2026-05-04 05:06 | -22.99018 | -43.61055 | 5439 ft | 259 kts | 67° |
| 2026-05-04 05:07 | -22.98271 | -43.59255 | 5413 ft | 260 kts | 67° |
| 2026-05-04 05:07 | -22.97529 | -43.57465 | 5476 ft | 259 kts | 67° |
| 2026-05-04 05:07 | -22.96787 | -43.55677 | 5726 ft | 262 kts | 67° |
| 2026-05-04 05:09 | -22.91036 | -43.41820 | 4628 ft | 226 kts | 67° |
| 2026-05-04 05:09 | -22.90403 | -43.40284 | 4398 ft | 220 kts | 67° |
| 2026-05-04 05:10 | -22.89789 | -43.38795 | 4174 ft | 215 kts | 66° |
| 2026-05-04 05:10 | -22.89174 | -43.37326 | 3947 ft | 211 kts | 66° |
| 2026-05-04 05:10 | -22.88619 | -43.35875 | 3719 ft | 208 kts | 76° |
| 2026-05-04 05:10 | -22.88428 | -43.34341 | 3501 ft | 204 kts | 89° |
| 2026-05-04 05:11 | -22.88459 | -43.32829 | 3279 ft | 200 kts | 93° |
| 2026-05-04 05:11 | -22.88550 | -43.31330 | 3052 ft | 196 kts | 94° |
| 2026-05-04 05:11 | -22.88651 | -43.29874 | 2826 ft | 193 kts | 94° |
| 2026-05-04 05:11 | -22.88755 | -43.28443 | 2643 ft | 187 kts | 94° |
| 2026-05-04 05:12 | -22.88876 | -43.27063 | 2486 ft | 180 kts | 98° |
| 2026-05-04 05:12 | -22.89138 | -43.25762 | 2333 ft | 174 kts | 105° |
| 2026-05-04 05:12 | -22.89476 | -43.24553 | 2263 ft | 161 kts | 106° |
| 2026-05-04 05:12 | -22.89821 | -43.23424 | 2103 ft | 154 kts | 107° |
| 2026-05-04 05:13 | -22.90159 | -43.22346 | 1942 ft | 147 kts | 107° |
| 2026-05-04 05:13 | -22.90485 | -43.21315 | 1781 ft | 141 kts | 107° |
| 2026-05-04 05:13 | -22.90828 | -43.20351 | 1611 ft | 135 kts | 112° |
| 2026-05-04 05:13 | -22.91361 | -43.19541 | 1405 ft | 135 kts | 141° |
| 2026-05-04 05:14 | -22.92223 | -43.19146 | 1238 ft | 137 kts | 168° |
| 2026-05-04 05:14 | -22.93162 | -43.18978 | 1153 ft | 136 kts | 167° |
| 2026-05-04 05:14 | -22.94045 | -43.18645 | 1118 ft | 133 kts | 146° |
| 2026-05-04 05:14 | -22.94701 | -43.17957 | 1189 ft | 132 kts | 120° |
| 2026-05-04 05:15 | -22.95000 | -43.17033 | 1064 ft | 130 kts | 92° |
| 2026-05-04 05:15 | -22.94746 | -43.16145 | 899 ft | 128 kts | 42° |
| 2026-05-04 05:15 | -22.93904 | -43.15934 | 646 ft | 133 kts | 347° |
| 2026-05-04 05:15 | -22.93018 | -43.16139 | 359 ft | 129 kts | 356° |
| 2026-05-04 05:16 | -22.92132 | -43.16206 | 148 ft | 129 kts | 358° |
| 2026-05-04 05:16 | -22.91245 | -43.16266 | 23 ft | 123 kts | 358° |
| 2026-05-04 05:16 | -22.90657 | -43.16311 | 22 ft | 44 kts | 357° |
| 2026-05-04 05:16 | -22.90504 | -43.16324 | 22 ft | 11 kts | 328° |
| 2026-05-04 05:17 | -22.90489 | -43.16385 | 23 ft | 7 kts | 264° |
| 2026-05-04 05:17 | -22.90494 | -43.16443 | 25 ft | 10 kts | 267° |
| 2026-05-04 05:17 | -22.90498 | -43.16537 | 26 ft | 10 kts | 253° |
| 2026-05-04 05:17 | -22.90532 | -43.16571 | 26 ft | 7 kts | 188° |
| 2026-05-04 05:18 | -22.90588 | -43.16571 | 26 ft | 9 kts | 176° |
| 2026-05-04 05:18 | -22.90654 | -43.16567 | 26 ft | 9 kts | 177° |
| 2026-05-04 05:18 | -22.90731 | -43.16560 | 26 ft | 13 kts | 175° |
| 2026-05-04 05:18 | -22.90827 | -43.16571 | 27 ft | 14 kts | 202° |
| 2026-05-04 05:19 | -22.90923 | -43.16556 | 26 ft | 17 kts | 151° |
| 2026-05-04 05:19 | -22.91056 | -43.16533 | 26 ft | 18 kts | 168° |
| 2026-05-04 05:19 | -22.91164 | -43.16518 | 25 ft | 10 kts | 178° |
| 2026-05-04 05:19 | -22.91206 | -43.16549 | 27 ft | 6 kts | 271° |
| 2026-05-04 05:20 | -22.91205 | -43.16563 | 27 ft | 1 kts | 274° |
| 2026-05-04 05:20 | -22.91205 | -43.16584 | 28 ft | 0 kts | 269° |